sensor_id;sensor_type;location;lat;lon;timestamp;pressure;altitude;pressure_sealevel;temperature;humidity
45255;BME280;30989;52.078;21.014;2022-10-16T00:03:32;167233.56;;;13.25;94.63
45255;BME280;30989;52.078;21.014;2022-10-16T00:06:00;167226.88;;;13.22;94.77
45255;BME280;30989;52.078;21.014;2022-10-16T00:08:26;167228.22;;;13.22;94.84
45255;BME280;30989;52.078;21.014;2022-10-16T00:10:52;167232.22;;;13.24;94.83
45255;BME280;30989;52.078;21.014;2022-10-16T00:13:17;167233.56;;;13.25;94.88
45255;BME280;30989;52.078;21.014;2022-10-16T00:15:45;167230.91;;;13.23;94.90
45255;BME280;30989;52.078;21.014;2022-10-16T00:18:11;167229.56;;;13.23;95.00
45255;BME280;30989;52.078;21.014;2022-10-16T00:20:37;167222.84;;;13.20;94.90
45255;BME280;30989;52.078;21.014;2022-10-16T00:23:03;167222.84;;;13.20;94.97
45255;BME280;30989;52.078;21.014;2022-10-16T00:25:30;167225.53;;;13.21;95.16
45255;BME280;30989;52.078;21.014;2022-10-16T00:27:59;167217.47;;;13.18;95.14
45255;BME280;30989;52.078;21.014;2022-10-16T00:30:24;167220.16;;;13.19;95.46
45255;BME280;30989;52.078;21.014;2022-10-16T00:32:52;167216.13;;;13.18;95.45
45255;BME280;30989;52.078;21.014;2022-10-16T00:35:17;167212.13;;;13.16;95.47
45255;BME280;30989;52.078;21.014;2022-10-16T00:37:43;167212.13;;;13.16;95.43
45255;BME280;30989;52.078;21.014;2022-10-16T00:40:09;167195.97;;;13.10;95.44
45255;BME280;30989;52.078;21.014;2022-10-16T00:42:35;167201.31;;;13.12;95.67
45255;BME280;30989;52.078;21.014;2022-10-16T00:45:01;167208.03;;;13.15;95.23
45255;BME280;30989;52.078;21.014;2022-10-16T00:47:42;167206.69;;;13.14;95.46
45255;BME280;30989;52.078;21.014;2022-10-16T00:52:36;167204.00;;;13.13;95.37
45255;BME280;30989;52.078;21.014;2022-10-16T00:55:05;167205.34;;;13.14;95.70
45255;BME280;30989;52.078;21.014;2022-10-16T00:57:32;167198.66;;;13.11;95.89
45255;BME280;30989;52.078;21.014;2022-10-16T00:59:57;167197.31;;;13.11;95.81
45255;BME280;30989;52.078;21.014;2022-10-16T01:02:23;167193.28;;;13.09;96.00
45255;BME280;30989;52.078;21.014;2022-10-16T01:04:51;167191.94;;;13.09;96.05
45255;BME280;30989;52.078;21.014;2022-10-16T01:07:39;167191.94;;;13.09;96.21
45255;BME280;30989;52.078;21.014;2022-10-16T01:12:58;167185.22;;;13.06;96.09
45255;BME280;30989;52.078;21.014;2022-10-16T01:15:34;167185.22;;;13.06;96.23
45255;BME280;30989;52.078;21.014;2022-10-16T01:20:37;167177.19;;;13.03;97.64
45255;BME280;30989;52.078;21.014;2022-10-16T01:28:37;167149.00;;;12.93;97.97
45255;BME280;30989;52.078;21.014;2022-10-16T01:31:04;167142.31;;;12.90;98.27
45255;BME280;30989;52.078;21.014;2022-10-16T01:33:38;167136.94;;;12.88;97.94
45255;BME280;30989;52.078;21.014;2022-10-16T01:36:26;167136.94;;;12.88;97.90
45255;BME280;30989;52.078;21.014;2022-10-16T01:38:56;167136.94;;;12.88;98.09
45255;BME280;30989;52.078;21.014;2022-10-16T01:41:31;167138.28;;;12.88;98.34
45255;BME280;30989;52.078;21.014;2022-10-16T01:44:08;167142.31;;;12.90;98.23
45255;BME280;30989;52.078;21.014;2022-10-16T01:46:37;167145.00;;;12.91;98.10
45255;BME280;30989;52.078;21.014;2022-10-16T01:49:05;167147.66;;;12.92;98.24
45255;BME280;30989;52.078;21.014;2022-10-16T01:51:32;167149.00;;;12.93;98.54
45255;BME280;30989;52.078;21.014;2022-10-16T01:53:59;167142.31;;;12.90;98.10
45255;BME280;30989;52.078;21.014;2022-10-16T01:56:27;167150.34;;;12.93;98.33
45255;BME280;30989;52.078;21.014;2022-10-16T02:01:31;167151.69;;;12.94;98.32
45255;BME280;30989;52.078;21.014;2022-10-16T02:03:59;167153.03;;;12.94;98.55
45255;BME280;30989;52.078;21.014;2022-10-16T02:06:27;167155.72;;;12.95;98.45
45255;BME280;30989;52.078;21.014;2022-10-16T02:08:53;167153.03;;;12.94;98.65
45255;BME280;30989;52.078;21.014;2022-10-16T02:11:19;167147.66;;;12.92;98.51
45255;BME280;30989;52.078;21.014;2022-10-16T02:13:55;167150.34;;;12.93;98.72
45255;BME280;30989;52.078;21.014;2022-10-16T02:16:33;167150.34;;;12.93;99.09
45255;BME280;30989;52.078;21.014;2022-10-16T02:18:59;167145.00;;;12.91;99.00
45255;BME280;30989;52.078;21.014;2022-10-16T02:21:40;167147.66;;;12.92;98.97
45255;BME280;30989;52.078;21.014;2022-10-16T02:27:03;167142.31;;;12.90;98.90
45255;BME280;30989;52.078;21.014;2022-10-16T02:29:32;167136.94;;;12.88;99.25
45255;BME280;30989;52.078;21.014;2022-10-16T02:32:04;167135.59;;;12.87;99.14
45255;BME280;30989;52.078;21.014;2022-10-16T02:34:32;167128.91;;;12.85;98.99
45255;BME280;30989;52.078;21.014;2022-10-16T02:37:02;167122.19;;;12.82;99.47
45255;BME280;30989;52.078;21.014;2022-10-16T02:39:29;167119.50;;;12.81;99.47
45255;BME280;30989;52.078;21.014;2022-10-16T02:41:55;167120.84;;;12.82;99.42
45255;BME280;30989;52.078;21.014;2022-10-16T02:44:21;167122.19;;;12.82;99.62
45255;BME280;30989;52.078;21.014;2022-10-16T02:46:46;167099.38;;;12.74;99.35
45255;BME280;30989;52.078;21.014;2022-10-16T02:49:11;167115.47;;;12.80;99.34
45255;BME280;30989;52.078;21.014;2022-10-16T02:51:37;167114.16;;;12.79;99.92
45255;BME280;30989;52.078;21.014;2022-10-16T02:54:03;167114.16;;;12.79;99.82
45255;BME280;30989;52.078;21.014;2022-10-16T02:56:29;167112.81;;;12.79;99.87
45255;BME280;30989;52.078;21.014;2022-10-16T02:58:55;167102.06;;;12.75;99.97
45255;BME280;30989;52.078;21.014;2022-10-16T03:01:21;167112.81;;;12.79;100.00
45255;BME280;30989;52.078;21.014;2022-10-16T03:03:46;167110.13;;;12.78;99.90
45255;BME280;30989;52.078;21.014;2022-10-16T03:06:12;167107.44;;;12.77;99.88
45255;BME280;30989;52.078;21.014;2022-10-16T03:08:37;167106.09;;;12.76;100.00
45255;BME280;30989;52.078;21.014;2022-10-16T03:11:03;167111.47;;;12.78;99.96
45255;BME280;30989;52.078;21.014;2022-10-16T03:13:28;167110.13;;;12.78;99.84
45255;BME280;30989;52.078;21.014;2022-10-16T03:15:53;167111.47;;;12.78;99.92
45255;BME280;30989;52.078;21.014;2022-10-16T03:18:19;167112.81;;;12.79;99.99
45255;BME280;30989;52.078;21.014;2022-10-16T03:20:45;167112.81;;;12.79;99.64
45255;BME280;30989;52.078;21.014;2022-10-16T03:23:10;167110.13;;;12.78;99.85
45255;BME280;30989;52.078;21.014;2022-10-16T03:25:36;167114.16;;;12.79;99.68
45255;BME280;30989;52.078;21.014;2022-10-16T03:28:02;167108.78;;;12.77;99.68
45255;BME280;30989;52.078;21.014;2022-10-16T03:30:28;167106.09;;;12.76;99.88
45255;BME280;30989;52.078;21.014;2022-10-16T03:32:54;167110.13;;;12.78;99.49
45255;BME280;30989;52.078;21.014;2022-10-16T03:35:21;167115.47;;;12.80;99.46
45255;BME280;30989;52.078;21.014;2022-10-16T03:37:47;167115.47;;;12.80;99.36
45255;BME280;30989;52.078;21.014;2022-10-16T03:40:13;167111.47;;;12.78;99.26
45255;BME280;30989;52.078;21.014;2022-10-16T03:42:38;167115.47;;;12.80;99.37
45255;BME280;30989;52.078;21.014;2022-10-16T03:45:05;167106.09;;;12.76;99.31
45255;BME280;30989;52.078;21.014;2022-10-16T03:47:30;167112.81;;;12.79;99.39
45255;BME280;30989;52.078;21.014;2022-10-16T03:49:58;167111.47;;;12.78;99.30
45255;BME280;30989;52.078;21.014;2022-10-16T03:52:24;167102.06;;;12.75;99.59
45255;BME280;30989;52.078;21.014;2022-10-16T03:54:49;167112.81;;;12.79;99.29
45255;BME280;30989;52.078;21.014;2022-10-16T03:57:15;167116.81;;;12.80;99.16
45255;BME280;30989;52.078;21.014;2022-10-16T03:59:40;167102.06;;;12.75;99.27
45255;BME280;30989;52.078;21.014;2022-10-16T04:02:06;167107.44;;;12.77;99.19
45255;BME280;30989;52.078;21.014;2022-10-16T04:04:31;167091.34;;;12.71;99.33
45255;BME280;30989;52.078;21.014;2022-10-16T04:06:57;167085.97;;;12.69;99.24
45255;BME280;30989;52.078;21.014;2022-10-16T04:09:22;167067.19;;;12.62;99.30
45255;BME280;30989;52.078;21.014;2022-10-16T04:11:47;167056.47;;;12.57;99.47
45255;BME280;30989;52.078;21.014;2022-10-16T04:14:13;167040.38;;;12.51;99.53
45255;BME280;30989;52.078;21.014;2022-10-16T04:16:38;167026.97;;;12.46;100.00
45255;BME280;30989;52.078;21.014;2022-10-16T04:19:04;167009.53;;;12.40;99.78
45255;BME280;30989;52.078;21.014;2022-10-16T04:21:29;167005.53;;;12.38;100.00
45255;BME280;30989;52.078;21.014;2022-10-16T04:23:55;166994.78;;;12.34;100.00
45255;BME280;30989;52.078;21.014;2022-10-16T04:26:20;166985.41;;;12.31;100.00
45255;BME280;30989;52.078;21.014;2022-10-16T04:28:46;166981.38;;;12.29;100.00
45255;BME280;30989;52.078;21.014;2022-10-16T04:31:11;166965.31;;;12.23;100.00
45255;BME280;30989;52.078;21.014;2022-10-16T04:33:37;166958.59;;;12.20;100.00
45255;BME280;30989;52.078;21.014;2022-10-16T04:36:03;166945.19;;;12.15;100.00
45255;BME280;30989;52.078;21.014;2022-10-16T04:38:29;166937.16;;;12.12;100.00
45255;BME280;30989;52.078;21.014;2022-10-16T04:40:55;166917.03;;;12.05;100.00
45255;BME280;30989;52.078;21.014;2022-10-16T04:43:20;166911.69;;;12.03;100.00
45255;BME280;30989;52.078;21.014;2022-10-16T04:45:46;166903.63;;;12.00;100.00
45255;BME280;30989;52.078;21.014;2022-10-16T04:48:11;166887.53;;;11.93;100.00
45255;BME280;30989;52.078;21.014;2022-10-16T04:50:37;166879.50;;;11.90;100.00
45255;BME280;30989;52.078;21.014;2022-10-16T04:53:06;166868.78;;;11.86;100.00
45255;BME280;30989;52.078;21.014;2022-10-16T04:55:32;166862.06;;;11.84;100.00
45255;BME280;30989;52.078;21.014;2022-10-16T04:57:57;166852.69;;;11.80;100.00
45255;BME280;30989;52.078;21.014;2022-10-16T05:00:23;166848.69;;;11.79;100.00
45255;BME280;30989;52.078;21.014;2022-10-16T05:02:52;166839.25;;;11.75;100.00
45255;BME280;30989;52.078;21.014;2022-10-16T05:05:18;166823.16;;;11.69;100.00
45255;BME280;30989;52.078;21.014;2022-10-16T05:07:47;166813.78;;;11.66;100.00
45255;BME280;30989;52.078;21.014;2022-10-16T05:10:13;166807.06;;;11.63;100.00
45255;BME280;30989;52.078;21.014;2022-10-16T05:12:38;166801.72;;;11.61;100.00
45255;BME280;30989;52.078;21.014;2022-10-16T05:15:04;166796.34;;;11.59;100.00
45255;BME280;30989;52.078;21.014;2022-10-16T05:17:30;166796.34;;;11.59;100.00
45255;BME280;30989;52.078;21.014;2022-10-16T05:19:55;166791.00;;;11.57;100.00
45255;BME280;30989;52.078;21.014;2022-10-16T05:22:21;166785.63;;;11.55;100.00
45255;BME280;30989;52.078;21.014;2022-10-16T05:24:46;166785.63;;;11.55;100.00
45255;BME280;30989;52.078;21.014;2022-10-16T05:27:12;166785.63;;;11.55;100.00
45255;BME280;30989;52.078;21.014;2022-10-16T05:29:45;166785.63;;;11.55;100.00
45255;BME280;30989;52.078;21.014;2022-10-16T05:32:11;166785.63;;;11.55;100.00
45255;BME280;30989;52.078;21.014;2022-10-16T05:34:37;166782.94;;;11.54;100.00
45255;BME280;30989;52.078;21.014;2022-10-16T05:37:02;166777.59;;;11.52;100.00
45255;BME280;30989;52.078;21.014;2022-10-16T05:39:28;166778.94;;;11.52;100.00
45255;BME280;30989;52.078;21.014;2022-10-16T05:41:53;166773.56;;;11.50;100.00
45255;BME280;30989;52.078;21.014;2022-10-16T05:44:19;166766.88;;;11.48;100.00
45255;BME280;30989;52.078;21.014;2022-10-16T05:46:46;166764.19;;;11.47;100.00
45255;BME280;30989;52.078;21.014;2022-10-16T05:49:11;166765.53;;;11.47;100.00
45255;BME280;30989;52.078;21.014;2022-10-16T05:51:37;166765.53;;;11.47;100.00
45255;BME280;30989;52.078;21.014;2022-10-16T05:54:02;166762.84;;;11.46;100.00
45255;BME280;30989;52.078;21.014;2022-10-16T05:56:28;166776.25;;;11.51;100.00
45255;BME280;30989;52.078;21.014;2022-10-16T05:58:54;166784.28;;;11.54;100.00
45255;BME280;30989;52.078;21.014;2022-10-16T06:01:19;166793.66;;;11.58;100.00
45255;BME280;30989;52.078;21.014;2022-10-16T06:03:50;166800.38;;;11.60;100.00
45255;BME280;30989;52.078;21.014;2022-10-16T06:06:21;166812.44;;;11.65;100.00
45255;BME280;30989;52.078;21.014;2022-10-16T06:08:48;166823.16;;;11.69;100.00
45255;BME280;30989;52.078;21.014;2022-10-16T06:11:19;166828.50;;;11.71;100.00
45255;BME280;30989;52.078;21.014;2022-10-16T06:13:45;166835.22;;;11.74;100.00
45255;BME280;30989;52.078;21.014;2022-10-16T06:16:12;166859.41;;;11.83;100.00
45255;BME280;30989;52.078;21.014;2022-10-16T06:18:38;166871.47;;;11.87;100.00
45255;BME280;30989;52.078;21.014;2022-10-16T06:21:12;166895.59;;;11.97;100.00
45255;BME280;30989;52.078;21.014;2022-10-16T06:23:39;166915.69;;;12.04;100.00
45255;BME280;30989;52.078;21.014;2022-10-16T06:26:10;166930.44;;;12.10;100.00
45255;BME280;30989;52.078;21.014;2022-10-16T06:28:36;166945.19;;;12.15;100.00
45255;BME280;30989;52.078;21.014;2022-10-16T06:31:03;166961.28;;;12.21;100.00
45255;BME280;30989;52.078;21.014;2022-10-16T06:33:29;166966.63;;;12.23;100.00
45255;BME280;30989;52.078;21.014;2022-10-16T06:36:00;166981.38;;;12.29;100.00
45255;BME280;30989;52.078;21.014;2022-10-16T06:38:26;166992.09;;;12.33;100.00
45255;BME280;30989;52.078;21.014;2022-10-16T06:40:53;167025.63;;;12.46;100.00
45255;BME280;30989;52.078;21.014;2022-10-16T06:43:19;167043.06;;;12.52;100.00
45255;BME280;30989;52.078;21.014;2022-10-16T06:45:53;167068.53;;;12.62;100.00
45255;BME280;30989;52.078;21.014;2022-10-16T06:48:19;167079.28;;;12.66;100.00
45255;BME280;30989;52.078;21.014;2022-10-16T06:51:04;167092.69;;;12.71;100.00
45255;BME280;30989;52.078;21.014;2022-10-16T06:53:32;167112.81;;;12.79;100.00
45255;BME280;30989;52.078;21.014;2022-10-16T06:56:07;167139.63;;;12.89;100.00
45255;BME280;30989;52.078;21.014;2022-10-16T06:58:32;167186.56;;;13.07;100.00
45255;BME280;30989;52.078;21.014;2022-10-16T07:00:58;167234.91;;;13.25;100.00
45255;BME280;30989;52.078;21.014;2022-10-16T07:03:23;167293.94;;;13.47;100.00
45255;BME280;30989;52.078;21.014;2022-10-16T07:05:48;167330.19;;;13.61;100.00
45255;BME280;30989;52.078;21.014;2022-10-16T07:08:14;167377.13;;;13.79;100.00
45255;BME280;30989;52.078;21.014;2022-10-16T07:10:39;167395.94;;;13.86;100.00
45255;BME280;30989;52.078;21.014;2022-10-16T07:13:05;167405.31;;;13.90;99.85
45255;BME280;30989;52.078;21.014;2022-10-16T07:15:32;167416.06;;;13.94;98.99
45255;BME280;30989;52.078;21.014;2022-10-16T07:17:58;167420.09;;;13.95;99.58
45255;BME280;30989;52.078;21.014;2022-10-16T07:20:24;167424.13;;;13.97;99.30
45255;BME280;30989;52.078;21.014;2022-10-16T07:22:49;167424.13;;;13.97;99.25
45255;BME280;30989;52.078;21.014;2022-10-16T07:25:15;167421.44;;;13.96;99.03
45255;BME280;30989;52.078;21.014;2022-10-16T07:27:41;167428.16;;;13.98;99.05
45255;BME280;30989;52.078;21.014;2022-10-16T07:30:06;167432.16;;;14.00;99.29
45255;BME280;30989;52.078;21.014;2022-10-16T07:32:32;167438.88;;;14.02;98.90
45255;BME280;30989;52.078;21.014;2022-10-16T07:34:58;167434.84;;;14.01;99.25
45255;BME280;30989;52.078;21.014;2022-10-16T07:37:23;167421.44;;;13.96;99.29
45255;BME280;30989;52.078;21.014;2022-10-16T07:39:49;167412.03;;;13.92;99.47
45255;BME280;30989;52.078;21.014;2022-10-16T07:42:14;167406.66;;;13.90;99.50
45255;BME280;30989;52.078;21.014;2022-10-16T07:44:40;167418.75;;;13.95;99.72
45255;BME280;30989;52.078;21.014;2022-10-16T07:47:06;167438.88;;;14.02;99.26
45255;BME280;30989;52.078;21.014;2022-10-16T07:49:32;167457.66;;;14.09;99.01
45255;BME280;30989;52.078;21.014;2022-10-16T07:51:57;167472.44;;;14.15;98.91
45255;BME280;30989;52.078;21.014;2022-10-16T07:54:22;167485.84;;;14.20;99.04
45255;BME280;30989;52.078;21.014;2022-10-16T07:56:48;167523.44;;;14.34;98.36
45255;BME280;30989;52.078;21.014;2022-10-16T07:59:13;167544.97;;;14.42;98.48
45255;BME280;30989;52.078;21.014;2022-10-16T08:01:39;167579.88;;;14.56;98.29
45255;BME280;30989;52.078;21.014;2022-10-16T08:04:05;167587.94;;;14.59;97.66
45255;BME280;30989;52.078;21.014;2022-10-16T08:06:35;167625.53;;;14.73;96.75
45255;BME280;30989;52.078;21.014;2022-10-16T08:09:01;167651.03;;;14.82;96.82
45255;BME280;30989;52.078;21.014;2022-10-16T08:11:26;167664.47;;;14.88;95.96
45255;BME280;30989;52.078;21.014;2022-10-16T08:13:52;167690.00;;;14.97;95.29
45255;BME280;30989;52.078;21.014;2022-10-16T08:16:17;167714.16;;;15.06;95.88
45255;BME280;30989;52.078;21.014;2022-10-16T08:18:43;167741.03;;;15.16;94.79
45255;BME280;30989;52.078;21.014;2022-10-16T08:21:13;167773.25;;;15.29;95.61
45255;BME280;30989;52.078;21.014;2022-10-16T08:23:39;167794.75;;;15.37;94.27
45255;BME280;30989;52.078;21.014;2022-10-16T08:26:06;167810.88;;;15.43;94.12
45255;BME280;30989;52.078;21.014;2022-10-16T08:28:33;167849.88;;;15.58;93.30
45255;BME280;30989;52.078;21.014;2022-10-16T08:31:12;167888.88;;;15.72;93.31
45255;BME280;30989;52.078;21.014;2022-10-16T08:33:40;167918.44;;;15.84;92.61
45255;BME280;30989;52.078;21.014;2022-10-16T08:36:06;167942.63;;;15.93;91.47
45255;BME280;30989;52.078;21.014;2022-10-16T08:38:33;167948.00;;;15.95;91.84
45255;BME280;30989;52.078;21.014;2022-10-16T08:41:17;167977.56;;;16.06;91.14
45255;BME280;30989;52.078;21.014;2022-10-16T08:46:45;168016.53;;;16.21;89.29
45255;BME280;30989;52.078;21.014;2022-10-16T08:49:16;168028.63;;;16.25;90.96
45255;BME280;30989;52.078;21.014;2022-10-16T08:51:42;168055.50;;;16.35;90.09
45255;BME280;30989;52.078;21.014;2022-10-16T08:54:37;168073.00;;;16.42;90.90
45255;BME280;30989;52.078;21.014;2022-10-16T08:57:13;168103.91;;;16.54;89.30
45255;BME280;30989;52.078;21.014;2022-10-16T08:59:39;168113.31;;;16.57;89.18
45255;BME280;30989;52.078;21.014;2022-10-16T09:02:31;168113.31;;;16.57;88.80
45255;BME280;30989;52.078;21.014;2022-10-16T09:16:27;168203.44;;;16.91;88.74
45255;BME280;30989;52.078;21.014;2022-10-16T09:19:18;168216.88;;;16.96;88.95
45255;BME280;30989;52.078;21.014;2022-10-16T09:21:48;168230.31;;;17.01;89.25
45255;BME280;30989;52.078;21.014;2022-10-16T09:24:19;168251.84;;;17.10;88.60
45255;BME280;30989;52.078;21.014;2022-10-16T09:26:46;168257.22;;;17.12;87.66
45255;BME280;30989;52.078;21.014;2022-10-16T09:29:16;168251.84;;;17.10;87.85
45255;BME280;30989;52.078;21.014;2022-10-16T09:31:45;168281.41;;;17.21;87.85
45255;BME280;30989;52.078;21.014;2022-10-16T09:34:30;168319.06;;;17.35;88.76
45255;BME280;30989;52.078;21.014;2022-10-16T09:36:57;168356.72;;;17.49;87.87
45255;BME280;30989;52.078;21.014;2022-10-16T09:39:24;168379.59;;;17.58;86.81
45255;BME280;30989;52.078;21.014;2022-10-16T09:41:49;168413.25;;;17.70;87.26
45255;BME280;30989;52.078;21.014;2022-10-16T09:44:20;168454.97;;;17.86;85.28
45255;BME280;30989;52.078;21.014;2022-10-16T09:46:48;168493.97;;;18.01;85.98
45255;BME280;30989;52.078;21.014;2022-10-16T09:49:36;168554.50;;;18.24;85.48
45255;BME280;30989;52.078;21.014;2022-10-16T09:52:09;168609.69;;;18.45;85.76
45255;BME280;30989;52.078;21.014;2022-10-16T09:54:36;168663.56;;;18.65;84.95
45255;BME280;30989;52.078;21.014;2022-10-16T09:57:12;168703.94;;;18.80;83.51
45255;BME280;30989;52.078;21.014;2022-10-16T09:59:55;168712.00;;;18.83;82.67
45255;BME280;30989;52.078;21.014;2022-10-16T10:02:35;168721.41;;;18.87;82.75
45255;BME280;30989;52.078;21.014;2022-10-16T10:05:04;168730.84;;;18.90;81.00
45255;BME280;30989;52.078;21.014;2022-10-16T10:07:33;168726.81;;;18.89;81.54
45255;BME280;30989;52.078;21.014;2022-10-16T10:10:00;168722.78;;;18.87;82.65
45255;BME280;30989;52.078;21.014;2022-10-16T10:12:30;168720.06;;;18.86;80.95
45255;BME280;30989;52.078;21.014;2022-10-16T10:15:03;168728.16;;;18.89;82.01
45255;BME280;30989;52.078;21.014;2022-10-16T10:17:29;168738.91;;;18.93;81.95
45255;BME280;30989;52.078;21.014;2022-10-16T10:20:00;168752.38;;;18.98;82.00
45255;BME280;30989;52.078;21.014;2022-10-16T10:35:33;168932.81;;;19.67;77.99
45255;BME280;30989;52.078;21.014;2022-10-16T10:38:13;168984.00;;;19.86;78.17
45255;BME280;30989;52.078;21.014;2022-10-16T10:40:52;169066.16;;;20.17;78.34
45255;BME280;30989;52.078;21.014;2022-10-16T10:46:04;169242.72;;;20.83;75.37
45255;BME280;30989;52.078;21.014;2022-10-16T10:51:18;169411.19;;;21.47;75.09
45255;BME280;30989;52.078;21.014;2022-10-16T10:56:44;169523.09;;;21.89;71.16
45255;BME280;30989;52.078;21.014;2022-10-16T11:07:51;169427.38;;;21.53;70.96
45255;BME280;30989;52.078;21.014;2022-10-16T11:10:22;169513.66;;;21.85;69.55
45255;BME280;30989;52.078;21.014;2022-10-16T11:12:53;169605.38;;;22.20;70.59
45255;BME280;30989;52.078;21.014;2022-10-16T11:15:25;169728.06;;;22.66;69.91
45255;BME280;30989;52.078;21.014;2022-10-16T11:17:59;169806.34;;;22.96;67.25
45255;BME280;30989;52.078;21.014;2022-10-16T11:23:05;169693.00;;;22.53;64.29
45255;BME280;30989;52.078;21.014;2022-10-16T11:25:33;169640.44;;;22.33;64.52
45255;BME280;30989;52.078;21.014;2022-10-16T11:28:03;169616.16;;;22.24;64.81
45255;BME280;30989;52.078;21.014;2022-10-16T11:30:49;169594.59;;;22.16;64.16
45255;BME280;30989;52.078;21.014;2022-10-16T11:33:33;169552.75;;;22.00;65.76
45255;BME280;30989;52.078;21.014;2022-10-16T11:36:25;169496.13;;;21.79;66.20
45255;BME280;30989;52.078;21.014;2022-10-16T11:41:39;169426.03;;;21.52;66.25
45255;BME280;30989;52.078;21.014;2022-10-16T11:47:30;169399.06;;;21.42;67.80
45255;BME280;30989;52.078;21.014;2022-10-16T11:50:02;169400.41;;;21.43;66.71
45255;BME280;30989;52.078;21.014;2022-10-16T11:52:40;169443.56;;;21.59;68.08
45255;BME280;30989;52.078;21.014;2022-10-16T11:55:17;169543.31;;;21.97;68.06
45255;BME280;30989;52.078;21.014;2022-10-16T11:57:51;169671.44;;;22.45;65.98
45255;BME280;30989;52.078;21.014;2022-10-16T12:00:23;169741.56;;;22.71;63.89
45255;BME280;30989;52.078;21.014;2022-10-16T12:05:22;169918.31;;;23.38;65.61
45255;BME280;30989;52.078;21.014;2022-10-16T12:10:30;170236.88;;;24.58;63.65
45255;BME280;30989;52.078;21.014;2022-10-16T12:13:03;170367.88;;;25.07;61.80
45255;BME280;30989;52.078;21.014;2022-10-16T12:15:32;170435.38;;;25.32;58.37
45255;BME280;30989;52.078;21.014;2022-10-16T12:17:58;170471.84;;;25.46;59.26
45255;BME280;30989;52.078;21.014;2022-10-16T12:20:27;170504.25;;;25.58;58.04
45255;BME280;30989;52.078;21.014;2022-10-16T12:23:01;170498.84;;;25.56;54.96
45255;BME280;30989;52.078;21.014;2022-10-16T12:25:31;170470.50;;;25.46;56.42
45255;BME280;30989;52.078;21.014;2022-10-16T12:28:00;170431.34;;;25.31;55.71
45255;BME280;30989;52.078;21.014;2022-10-16T12:30:29;170319.22;;;24.89;55.24
45255;BME280;30989;52.078;21.014;2022-10-16T12:32:57;170191.00;;;24.40;57.75
45255;BME280;30989;52.078;21.014;2022-10-16T12:35:30;170153.19;;;24.26;58.76
45255;BME280;30989;52.078;21.014;2022-10-16T12:38:19;170235.53;;;24.57;57.49
45255;BME280;30989;52.078;21.014;2022-10-16T12:40:54;170347.63;;;24.99;55.53
45255;BME280;30989;52.078;21.014;2022-10-16T12:43:24;170386.78;;;25.14;56.79
45255;BME280;30989;52.078;21.014;2022-10-16T12:46:24;170436.75;;;25.33;54.71
45255;BME280;30989;52.078;21.014;2022-10-16T12:51:53;170497.50;;;25.56;54.28
45255;BME280;30989;52.078;21.014;2022-10-16T12:54:36;170573.19;;;25.84;55.37
45255;BME280;30989;52.078;21.014;2022-10-16T13:05:30;170389.47;;;25.15;54.64
45255;BME280;30989;52.078;21.014;2022-10-16T13:11:08;170078.91;;;23.98;56.60
45255;BME280;30989;52.078;21.014;2022-10-16T13:29:01;169328.94;;;21.16;63.68
45255;BME280;30989;52.078;21.014;2022-10-16T13:31:28;169285.81;;;21.00;64.42
45255;BME280;30989;52.078;21.014;2022-10-16T13:33:57;169249.44;;;20.86;65.29
45255;BME280;30989;52.078;21.014;2022-10-16T13:36:26;169210.31;;;20.71;65.84
45255;BME280;30989;52.078;21.014;2022-10-16T13:39:12;169175.31;;;20.58;66.59
45255;BME280;30989;52.078;21.014;2022-10-16T13:41:37;169163.19;;;20.53;67.22
45255;BME280;30989;52.078;21.014;2022-10-16T13:44:03;169142.97;;;20.46;67.75
45255;BME280;30989;52.078;21.014;2022-10-16T13:46:30;169122.72;;;20.38;68.37
45255;BME280;30989;52.078;21.014;2022-10-16T13:49:11;169101.16;;;20.30;68.35
45255;BME280;30989;52.078;21.014;2022-10-16T13:51:37;169078.25;;;20.21;68.99
45255;BME280;30989;52.078;21.014;2022-10-16T13:54:02;169040.56;;;20.07;69.50
45255;BME280;30989;52.078;21.014;2022-10-16T13:56:30;169031.13;;;20.04;69.87
45255;BME280;30989;52.078;21.014;2022-10-16T13:58:59;169019.00;;;19.99;70.47
45255;BME280;30989;52.078;21.014;2022-10-16T14:01:29;169002.84;;;19.93;70.79
45255;BME280;30989;52.078;21.014;2022-10-16T14:04:02;168992.06;;;19.89;70.96
45255;BME280;30989;52.078;21.014;2022-10-16T14:06:28;168965.13;;;19.79;71.30
45255;BME280;30989;52.078;21.014;2022-10-16T14:09:05;168951.69;;;19.74;71.62
45255;BME280;30989;52.078;21.014;2022-10-16T14:11:32;168961.09;;;19.77;72.42
45255;BME280;30989;52.078;21.014;2022-10-16T14:13:58;168942.25;;;19.70;72.22
45255;BME280;30989;52.078;21.014;2022-10-16T14:16:30;168932.81;;;19.67;72.32
45255;BME280;30989;52.078;21.014;2022-10-16T14:19:00;168919.34;;;19.61;72.61
45255;BME280;30989;52.078;21.014;2022-10-16T14:21:27;168891.03;;;19.51;72.89
45255;BME280;30989;52.078;21.014;2022-10-16T14:23:53;168881.63;;;19.47;73.21
45255;BME280;30989;52.078;21.014;2022-10-16T14:26:23;168857.38;;;19.38;73.58
45255;BME280;30989;52.078;21.014;2022-10-16T14:29:02;168839.88;;;19.31;73.77
45255;BME280;30989;52.078;21.014;2022-10-16T14:31:32;168819.69;;;19.24;73.99
45255;BME280;30989;52.078;21.014;2022-10-16T14:33:59;168803.53;;;19.18;74.29
45255;BME280;30989;52.078;21.014;2022-10-16T14:36:26;168782.00;;;19.10;74.74